Time;durP1;ratioP1;P1;durP2;ratioP2;P2;SDS_P1;SDS_P2;PMS_P1;PMS_P2;Temp;Humidity;BMP_temperature;BMP_pressure;BME280_temperature;BME280_humidity;BME280_pressure;Samples;Min_cycle;Max_cycle;Signal;HPM_P1;HPM_P2
2024/03/10 00:01:30;;;;;;;2.47;0.65;;;9.60;99.90;;;;;;4966615;28;20050;-74
2024/03/10 00:03:56;;;;;;;0.95;0.95;;;9.40;99.90;;;;;;4961153;28;20039;-75
2024/03/10 00:06:22;;;;;;;0.38;0.38;;;9.20;99.90;;;;;;4962333;28;20045;-75
2024/03/10 00:08:49;;;;;;;0.85;0.85;;;9.00;99.90;;;;;;4959528;28;20043;-75
2024/03/10 00:11:15;;;;;;;1.55;1.45;;;8.80;99.90;;;;;;4950584;28;20054;-73
2024/03/10 00:13:42;;;;;;;0.22;0.22;;;8.60;99.90;;;;;;4964325;28;20050;-75
2024/03/10 00:16:11;;;;;;;1.83;1.38;;;8.30;99.90;;;;;;4963731;28;20046;-75
2024/03/10 00:18:37;;;;;;;1.60;1.13;;;8.00;1.00;;;;;;4962803;28;20062;-75
2024/03/10 00:21:04;;;;;;;0.90;0.82;;;7.60;1.00;;;;;;4960393;28;20028;-75
2024/03/10 00:23:31;;;;;;;1.58;0.88;;;7.40;1.00;;;;;;4958951;28;20039;-75
2024/03/10 00:25:57;;;;;;;1.20;1.02;;;7.20;1.00;;;;;;4957892;28;20055;-75
2024/03/10 00:28:23;;;;;;;1.73;0.82;;;7.00;1.00;;;;;;4964926;28;20038;-75
2024/03/10 00:30:49;;;;;;;1.13;0.65;;;6.90;1.00;;;;;;4964421;28;20026;-75
2024/03/10 00:33:16;;;;;;;0.88;0.85;;;7.20;1.00;;;;;;4964209;28;20034;-74
2024/03/10 00:35:43;;;;;;;0.32;0.30;;;7.30;1.00;;;;;;4960293;28;20031;-74
2024/03/10 00:38:09;;;;;;;0.65;0.65;;;7.30;1.00;;;;;;4948106;28;20031;-74
2024/03/10 00:40:37;;;;;;;0.63;0.63;;;7.20;1.00;;;;;;4964047;28;20035;-75
2024/03/10 00:43:04;;;;;;;2.03;1.05;;;7.10;1.00;;;;;;4902203;28;1163218;-74
2024/03/10 00:45:30;;;;;;;1.05;0.95;;;7.00;1.00;;;;;;4965730;28;20035;-74
2024/03/10 00:47:56;;;;;;;1.27;0.68;;;6.90;1.00;;;;;;4947319;28;20039;-74
2024/03/10 00:50:22;;;;;;;3.40;1.05;;;6.70;1.00;;;;;;4963384;28;20039;-74
2024/03/10 00:52:49;;;;;;;1.48;1.25;;;6.60;18.50;;;;;;4962207;28;20384;-74
2024/03/10 00:55:15;;;;;;;3.30;1.30;;;6.40;55.30;;;;;;4960721;28;20049;-74
2024/03/10 00:57:41;;;;;;;2.58;1.13;;;6.40;90.00;;;;;;4964672;28;20046;-74
2024/03/10 01:00:11;;;;;;;5.90;1.70;;;6.30;99.90;;;;;;4966894;28;20041;-74
2024/03/10 01:02:38;;;;;;;4.30;0.75;;;6.30;99.90;;;;;;4965992;28;20357;-74
2024/03/10 01:05:05;;;;;;;1.13;0.82;;;6.20;99.90;;;;;;4944145;28;20039;-74
2024/03/10 01:07:32;;;;;;;1.17;0.80;;;6.10;99.90;;;;;;4960648;28;20039;-74
2024/03/10 01:09:58;;;;;;;2.00;1.65;;;6.10;99.90;;;;;;4963080;28;20042;-74
2024/03/10 01:12:25;;;;;;;0.20;0.20;;;6.20;99.90;;;;;;4966685;28;20461;-74
2024/03/10 01:14:51;;;;;;;0.57;0.57;;;6.10;99.90;;;;;;4964253;28;20046;-74
2024/03/10 01:17:17;;;;;;;0.40;0.40;;;6.20;99.90;;;;;;4953678;28;20050;-74
2024/03/10 01:19:44;;;;;;;1.23;1.15;;;6.30;99.90;;;;;;4963229;28;20042;-74
2024/03/10 01:22:11;;;;;;;0.65;0.65;;;6.50;99.90;;;;;;4952342;28;20593;-74
2024/03/10 01:24:38;;;;;;;1.83;0.52;;;6.90;31.00;;;;;;4959121;28;20046;-74
2024/03/10 01:27:04;;;;;;;0.93;0.77;;;7.30;1.00;;;;;;4961381;28;20136;-74
2024/03/10 01:29:30;;;;;;;1.02;1.02;;;7.60;1.00;;;;;;4964113;28;20054;-74
2024/03/10 01:31:57;;;;;;;0.77;0.77;;;8.00;1.00;;;;;;4964604;28;20051;-74
2024/03/10 01:34:23;;;;;;;0.40;0.40;;;8.60;99.90;;;;;;4966694;28;20035;-73
2024/03/10 01:36:49;;;;;;;0.73;0.73;;;8.90;99.90;;;;;;4960365;28;20031;-74
2024/03/10 01:39:16;;;;;;;0.10;0.10;;;9.20;99.90;;;;;;4951052;28;20050;-74
2024/03/10 01:41:43;;;;;;;0.43;0.43;;;9.30;99.90;;;;;;4964766;28;20047;-74
2024/03/10 01:44:09;;;;;;;0.68;0.68;;;9.30;99.90;;;;;;4964922;28;20082;-74
2024/03/10 01:46:36;;;;;;;1.60;1.50;;;9.50;99.90;;;;;;4952614;28;20042;-74
2024/03/10 01:49:04;;;;;;;0.65;0.57;;;9.60;99.90;;;;;;4947371;28;20054;-75
2024/03/10 01:51:31;;;;;;;1.00;0.65;;;9.60;99.90;;;;;;4961900;28;20035;-74
2024/03/10 01:53:59;;;;;;;0.20;0.20;;;9.50;99.90;;;;;;4942326;28;20035;-74
2024/03/10 01:56:26;;;;;;;0.43;0.43;;;9.40;99.90;;;;;;4961952;28;20035;-75
2024/03/10 01:58:53;;;;;;;0.75;0.75;;;9.40;99.90;;;;;;4964005;28;20042;-75
2024/03/10 02:01:23;;;;;;;4.38;1.10;;;9.30;99.90;;;;;;4966470;28;20035;-75
2024/03/10 02:03:50;;;;;;;0.93;0.88;;;9.20;99.90;;;;;;4965751;28;20039;-75
2024/03/10 02:06:16;;;;;;;0.85;0.73;;;9.00;99.90;;;;;;4961534;28;20050;-75
2024/03/10 02:08:44;;;;;;;0.55;0.52;;;8.80;99.90;;;;;;4962888;28;20046;-75
2024/03/10 02:11:11;;;;;;;0.63;0.55;;;8.70;99.90;;;;;;4962059;28;20062;-75
2024/03/10 02:13:37;;;;;;;0.70;0.70;;;8.50;99.90;;;;;;4965670;28;20396;-75
2024/03/10 02:16:06;;;;;;;0.38;0.38;;;8.40;99.90;;;;;;4949902;28;20050;-75
2024/03/10 02:18:32;;;;;;;0.20;0.20;;;8.30;99.90;;;;;;4964958;28;20396;-75
2024/03/10 02:21:00;;;;;;;0.55;0.50;;;8.30;99.90;;;;;;4961149;28;20035;-73
2024/03/10 02:23:42;;;;;;;1.00;0.40;;;8.20;99.90;;;;;;4958488;28;20480;-74
2024/03/10 02:26:09;;;;;;;2.35;1.08;;;8.20;99.90;;;;;;4964447;28;20047;-75
2024/03/10 02:28:46;;;;;;;0.52;0.50;;;8.30;99.90;;;;;;4965833;28;20027;-75
2024/03/10 02:47:52;;;;;;;0.35;0.35;;;8.20;99.90;;;;;;4944231;28;20047;-75
2024/03/10 02:50:20;;;;;;;1.98;0.43;;;8.20;99.90;;;;;;4963336;28;20043;-75
2024/03/10 02:52:46;;;;;;;0.20;0.20;;;8.10;1.00;;;;;;4962103;28;20058;-75
2024/03/10 02:55:13;;;;;;;1.42;0.95;;;8.20;99.90;;;;;;4969967;28;20284;-75
2024/03/10 02:57:39;;;;;;;2.25;1.55;;;8.20;99.90;;;;;;4946879;28;20045;-75
2024/03/10 03:00:09;;;;;;;1.08;0.88;;;8.30;99.90;;;;;;4961429;28;20043;-75
2024/03/10 03:02:35;;;;;;;0.82;0.82;;;8.30;99.90;;;;;;4948209;28;20043;-74
2024/03/10 03:05:01;;;;;;;0.98;0.73;;;8.40;99.90;;;;;;4966657;28;20040;-75
2024/03/10 03:07:28;;;;;;;0.20;0.20;;;8.40;99.90;;;;;;4954749;28;20039;-75
2024/03/10 03:09:54;;;;;;;0.40;0.40;;;8.50;99.90;;;;;;4962460;28;20050;-74
2024/03/10 03:12:20;;;;;;;0.40;0.40;;;8.50;99.90;;;;;;4951168;28;20035;-75
2024/03/10 03:14:46;;;;;;;1.02;0.93;;;8.60;99.90;;;;;;4947997;28;20087;-76
2024/03/10 03:17:12;;;;;;;0.75;0.63;;;8.70;99.90;;;;;;4967001;28;20035;-75
2024/03/10 03:19:39;;;;;;;0.68;0.68;;;8.80;99.90;;;;;;4967134;28;20050;-74
2024/03/10 03:22:06;;;;;;;0.10;0.10;;;8.90;99.90;;;;;;4960321;28;20346;-74
2024/03/10 03:24:33;;;;;;;0.32;0.30;;;9.00;99.90;;;;;;4974181;28;20031;-74
2024/03/10 03:26:59;;;;;;;2.10;0.95;;;9.20;99.90;;;;;;4962701;28;20053;-75
2024/03/10 03:29:26;;;;;;;0.98;0.90;;;9.30;99.90;;;;;;4968677;28;20042;-75
2024/03/10 03:31:52;;;;;;;1.75;0.80;;;9.40;99.90;;;;;;4967048;28;20034;-75
2024/03/10 03:34:19;;;;;;;0.55;0.55;;;9.30;99.90;;;;;;4965216;28;20248;-74
2024/03/10 03:36:45;;;;;;;3.80;2.00;;;9.30;99.90;;;;;;4937953;28;20044;-75
2024/03/10 03:39:13;;;;;;;0.70;0.68;;;9.40;99.90;;;;;;4939169;28;20046;-75
2024/03/10 03:41:39;;;;;;;0.68;0.68;;;9.50;99.90;;;;;;4942954;28;20043;-74
2024/03/10 03:44:07;;;;;;;1.02;1.02;;;9.60;99.90;;;;;;4966753;28;20055;-74
2024/03/10 03:46:33;;;;;;;0.82;0.82;;;9.60;99.90;;;;;;4966498;28;20043;-74
2024/03/10 03:48:59;;;;;;;1.92;0.57;;;9.50;99.90;;;;;;4964195;28;20049;-74
2024/03/10 03:51:25;;;;;;;0.40;0.38;;;9.50;99.90;;;;;;4962119;28;20400;-74
2024/03/10 03:53:52;;;;;;;1.55;0.98;;;9.40;99.90;;;;;;4961375;28;20043;-74
2024/03/10 03:56:18;;;;;;;1.02;0.90;;;9.50;99.90;;;;;;4964761;28;20445;-74
2024/03/10 03:58:44;;;;;;;0.22;0.22;;;9.50;99.90;;;;;;4964521;28;20039;-74
2024/03/10 04:01:10;;;;;;;1.27;0.93;;;9.60;99.90;;;;;;4966444;28;20039;-74
2024/03/10 04:03:36;;;;;;;0.80;0.80;;;9.60;99.90;;;;;;4965863;28;20027;-74
2024/03/10 04:06:05;;;;;;;0.82;0.82;;;9.60;99.90;;;;;;4964350;28;20042;-74
2024/03/10 04:08:32;;;;;;;3.20;1.48;;;9.60;99.90;;;;;;4961145;28;20038;-74
2024/03/10 04:10:58;;;;;;;0.75;0.70;;;9.60;99.90;;;;;;4960425;28;20054;-74
2024/03/10 04:13:25;;;;;;;0.90;0.85;;;9.60;99.90;;;;;;4965987;28;20038;-74
2024/03/10 04:15:51;;;;;;;0.65;0.55;;;9.60;99.90;;;;;;4966815;28;20389;-74
2024/03/10 04:18:17;;;;;;;0.45;0.45;;;9.60;99.90;;;;;;4968185;28;20039;-74
2024/03/10 04:20:47;;;;;;;0.50;0.50;;;9.50;99.90;;;;;;4962580;28;20391;-75
2024/03/10 04:23:13;;;;;;;1.13;1.02;;;9.40;99.90;;;;;;4959528;28;20457;-74
2024/03/10 04:25:39;;;;;;;0.63;0.60;;;9.40;99.90;;;;;;4960053;28;20035;-75
2024/03/10 04:28:05;;;;;;;0.65;0.50;;;9.30;99.90;;;;;;4964728;28;20050;-75
2024/03/10 04:30:31;;;;;;;0.40;0.40;;;9.20;99.90;;;;;;4960726;28;20053;-74
2024/03/10 04:32:57;;;;;;;0.90;0.90;;;9.20;99.90;;;;;;4966501;28;20030;-74
2024/03/10 04:35:24;;;;;;;0.85;0.65;;;9.30;99.90;;;;;;4963472;28;20042;-74
2024/03/10 04:37:53;;;;;;;0.73;0.70;;;9.30;99.90;;;;;;4961173;28;20045;-74
2024/03/10 04:40:19;;;;;;;3.47;1.10;;;9.30;99.90;;;;;;4960222;28;20030;-73
2024/03/10 04:42:45;;;;;;;0.77;0.77;;;9.30;99.90;;;;;;4942311;28;20047;-74
2024/03/10 04:45:11;;;;;;;0.90;0.73;;;9.40;99.90;;;;;;4966035;28;20054;-73
2024/03/10 04:47:38;;;;;;;0.22;0.17;;;9.40;99.90;;;;;;4967137;28;20046;-74
2024/03/10 04:50:05;;;;;;;2.25;0.60;;;9.50;99.90;;;;;;4954798;28;20043;-74
2024/03/10 04:52:31;;;;;;;1.98;1.80;;;9.40;99.90;;;;;;4948069;28;20042;-74
2024/03/10 04:54:58;;;;;;;0.75;0.75;;;9.40;99.90;;;;;;4965426;28;20089;-74
2024/03/10 04:57:24;;;;;;;0.63;0.63;;;9.30;99.90;;;;;;4958623;28;20353;-74
2024/03/10 04:59:51;;;;;;;0.68;0.55;;;9.30;99.90;;;;;;4966390;28;20050;-74
2024/03/10 05:02:17;;;;;;;2.20;1.30;;;9.30;99.90;;;;;;4967213;28;20038;-74
2024/03/10 05:04:46;;;;;;;1.30;1.10;;;9.20;99.90;;;;;;4964018;28;20361;-73
2024/03/10 05:07:12;;;;;;;1.60;1.13;;;9.20;99.90;;;;;;4958192;28;20034;-74
2024/03/10 05:09:38;;;;;;;0.43;0.43;;;9.30;99.90;;;;;;4962403;28;20045;-74
2024/03/10 05:12:04;;;;;;;0.20;0.20;;;9.20;99.90;;;;;;4961909;28;20027;-75
2024/03/10 05:14:31;;;;;;;2.38;0.90;;;9.20;99.90;;;;;;4966061;28;20046;-74
2024/03/10 05:16:59;;;;;;;0.25;0.25;;;9.10;99.90;;;;;;4952158;28;20035;-74
2024/03/10 05:19:28;;;;;;;1.63;1.35;;;9.10;99.90;;;;;;4963777;28;20054;-74
2024/03/10 05:21:55;;;;;;;1.30;0.82;;;9.20;99.90;;;;;;4959669;28;20035;-74
2024/03/10 05:24:22;;;;;;;0.40;0.40;;;9.20;99.90;;;;;;4963120;28;20042;-74
2024/03/10 05:26:49;;;;;;;1.13;1.02;;;9.30;99.90;;;;;;4963996;28;20035;-74
2024/03/10 05:29:15;;;;;;;0.30;0.25;;;9.30;99.90;;;;;;4964644;28;20027;-74
2024/03/10 05:31:43;;;;;;;0.60;0.55;;;9.20;99.90;;;;;;4967082;28;20039;-75
2024/03/10 05:34:10;;;;;;;0.75;0.52;;;9.20;99.90;;;;;;4963356;28;20077;-73
2024/03/10 05:36:36;;;;;;;0.80;0.80;;;9.20;99.90;;;;;;4961089;28;20389;-74
2024/03/10 05:39:02;;;;;;;0.70;0.70;;;9.20;99.90;;;;;;4959611;28;20392;-75
2024/03/10 05:41:28;;;;;;;0.50;0.50;;;9.20;99.90;;;;;;4963076;28;20491;-74
2024/03/10 05:43:54;;;;;;;5.65;1.52;;;9.20;99.90;;;;;;4957752;28;20425;-74
2024/03/10 05:46:21;;;;;;;0.95;0.70;;;9.20;99.90;;;;;;4945902;28;20049;-74
2024/03/10 05:48:47;;;;;;;0.30;0.30;;;9.20;99.90;;;;;;4966785;28;20035;-74
2024/03/10 05:51:13;;;;;;;1.35;1.13;;;9.10;99.90;;;;;;4959709;28;21104;-74
2024/03/10 05:53:40;;;;;;;2.20;2.10;;;9.00;99.90;;;;;;4960689;28;20050;-74
2024/03/10 05:56:12;;;;;;;0.80;0.80;;;9.10;99.90;;;;;;4964084;28;20047;-74
2024/03/10 05:58:38;;;;;;;0.65;0.65;;;9.10;99.90;;;;;;4965266;28;20382;-74
2024/03/10 06:01:05;;;;;;;5.57;1.58;;;9.00;99.90;;;;;;4965446;28;20039;-74
2024/03/10 06:03:32;;;;;;;0.77;0.77;;;8.90;99.90;;;;;;4963856;28;20481;-74
2024/03/10 06:05:58;;;;;;;2.05;0.50;;;8.80;99.90;;;;;;4961480;28;20396;-75
2024/03/10 06:08:24;;;;;;;0.75;0.68;;;8.90;99.90;;;;;;4958325;28;20139;-74
2024/03/10 06:10:51;;;;;;;1.20;0.65;;;8.90;99.90;;;;;;4952217;28;20043;-74
2024/03/10 06:13:18;;;;;;;1.05;0.98;;;8.80;99.90;;;;;;4963867;28;20464;-74
2024/03/10 06:15:44;;;;;;;0.73;0.73;;;8.70;99.90;;;;;;4967390;28;20035;-74
2024/03/10 06:18:19;;;;;;;0.90;0.88;;;8.70;99.90;;;;;;4963117;28;20028;-74
2024/03/10 06:26:17;;;;;;;1.23;1.20;;;8.40;99.90;;;;;;4954454;28;20043;-74
2024/03/10 06:28:43;;;;;;;0.85;0.38;;;8.40;99.90;;;;;;4968856;28;20035;-74
2024/03/10 06:31:09;;;;;;;6.05;0.73;;;8.50;99.90;;;;;;4954777;28;20043;-74
2024/03/10 06:33:38;;;;;;;1.20;0.73;;;8.40;99.90;;;;;;4923003;28;20054;-74
2024/03/10 06:36:10;;;;;;;0.60;0.60;;;8.40;99.90;;;;;;4964716;28;20040;-75
2024/03/10 06:38:40;;;;;;;1.55;1.42;;;8.30;99.90;;;;;;4961550;28;20041;-75
2024/03/10 06:41:10;;;;;;;1.35;1.25;;;8.30;99.90;;;;;;4967877;28;20035;-75
2024/03/10 06:43:39;;;;;;;0.20;0.20;;;8.20;99.90;;;;;;4966642;28;20058;-74
2024/03/10 06:46:09;;;;;;;2.58;1.95;;;8.20;99.90;;;;;;4967500;28;20039;-74
2024/03/10 06:48:36;;;;;;;5.10;1.35;;;8.30;99.90;;;;;;4965896;28;20043;-74
2024/03/10 06:51:03;;;;;;;0.65;0.65;;;8.30;99.90;;;;;;4965079;28;20428;-75
2024/03/10 06:53:30;;;;;;;0.65;0.65;;;8.40;99.90;;;;;;4962609;28;20054;-74
2024/03/10 06:55:58;;;;;;;1.15;1.08;;;8.40;99.90;;;;;;4963792;28;20023;-74
2024/03/10 06:58:24;;;;;;;0.32;0.32;;;8.50;99.90;;;;;;4967075;28;20031;-74
2024/03/10 07:00:54;;;;;;;2.67;0.85;;;8.50;99.90;;;;;;4968462;28;20030;-75
2024/03/10 07:03:20;;;;;;;0.50;0.50;;;8.50;99.90;;;;;;4966582;28;20119;-75
2024/03/10 07:05:46;;;;;;;2.40;1.55;;;8.70;99.90;;;;;;4962976;28;20042;-74
2024/03/10 07:08:15;;;;;;;0.95;0.80;;;8.70;99.90;;;;;;4962641;28;20023;-74
2024/03/10 07:10:42;;;;;;;1.10;1.05;;;8.70;99.90;;;;;;4965255;28;20054;-74
2024/03/10 07:13:08;;;;;;;5.90;2.05;;;8.80;99.90;;;;;;4956079;28;20038;-75
2024/03/10 07:15:34;;;;;;;0.98;0.85;;;8.80;99.90;;;;;;4967135;28;20042;-74
2024/03/10 07:18:00;;;;;;;1.35;1.17;;;8.80;99.90;;;;;;4966016;28;20034;-74
2024/03/10 07:20:27;;;;;;;0.75;0.63;;;8.80;99.90;;;;;;4955621;28;20043;-74
2024/03/10 07:22:53;;;;;;;1.02;1.00;;;8.80;99.90;;;;;;4965864;28;20054;-74
2024/03/10 07:25:20;;;;;;;3.05;1.63;;;8.80;99.90;;;;;;4961912;28;20035;-74
2024/03/10 07:27:47;;;;;;;0.57;0.57;;;8.80;99.90;;;;;;4962534;28;20035;-74
2024/03/10 07:30:13;;;;;;;0.63;0.63;;;8.90;99.90;;;;;;4966447;28;20042;-74
2024/03/10 07:32:42;;;;;;;0.50;0.50;;;8.90;99.90;;;;;;4967531;28;20035;-74
2024/03/10 07:35:09;;;;;;;1.20;1.08;;;8.90;99.90;;;;;;4964476;28;20402;-74
2024/03/10 07:37:35;;;;;;;1.00;0.85;;;8.90;99.90;;;;;;4951963;28;20524;-74
2024/03/10 07:40:02;;;;;;;0.60;0.60;;;8.90;99.90;;;;;;4959267;28;20406;-73
2024/03/10 07:42:28;;;;;;;0.57;0.57;;;8.90;99.90;;;;;;4965157;28;20051;-73
2024/03/10 07:44:55;;;;;;;0.50;0.50;;;9.00;99.90;;;;;;4966625;28;20042;-75
2024/03/10 07:47:21;;;;;;;0.47;0.47;;;9.00;99.90;;;;;;4966774;28;20039;-74
2024/03/10 07:49:48;;;;;;;0.47;0.47;;;9.10;99.90;;;;;;4964328;28;20473;-73
2024/03/10 07:52:14;;;;;;;5.47;2.22;;;9.10;99.90;;;;;;4963283;28;20499;-73
2024/03/10 07:54:41;;;;;;;0.47;0.47;;;9.20;99.90;;;;;;4963357;28;20035;-73
2024/03/10 07:57:07;;;;;;;0.82;0.70;;;9.30;99.90;;;;;;4966319;28;20392;-74
2024/03/10 07:59:34;;;;;;;1.42;1.15;;;9.30;99.90;;;;;;4952691;28;20030;-74
2024/03/10 08:02:01;;;;;;;1.65;1.25;;;9.40;99.90;;;;;;4970621;28;20023;-74
2024/03/10 08:04:27;;;;;;;0.75;0.75;;;9.40;99.90;;;;;;4971562;28;20019;-73
2024/03/10 08:06:53;;;;;;;0.25;0.25;;;9.50;99.90;;;;;;4968699;28;20515;-74
2024/03/10 08:09:19;;;;;;;0.57;0.57;;;9.80;99.90;;;;;;4964557;28;20038;-74
2024/03/10 08:11:46;;;;;;;1.02;0.95;;;10.40;99.90;;;;;;4943571;28;20061;-74
2024/03/10 08:14:12;;;;;;;1.25;1.15;;;11.50;99.90;;;;;;4967015;28;20049;-74
2024/03/10 08:16:40;;;;;;;1.05;0.85;;;12.00;99.90;;;;;;4967277;28;20031;-74
2024/03/10 08:19:06;;;;;;;4.85;1.25;;;11.90;99.90;;;;;;4962993;28;20035;-74
2024/03/10 08:21:32;;;;;;;2.80;1.23;;;11.40;99.90;;;;;;4951294;28;20039;-74
2024/03/10 08:23:59;;;;;;;0.68;0.52;;;11.30;99.90;;;;;;4962533;28;20042;-74
2024/03/10 08:26:25;;;;;;;2.20;1.10;;;11.20;99.90;;;;;;4965277;28;20030;-74
2024/03/10 08:28:51;;;;;;;0.55;0.55;;;11.00;99.90;;;;;;4947623;28;20043;-77
2024/03/10 08:31:18;;;;;;;2.72;1.85;;;11.10;99.90;;;;;;4965985;28;20043;-75
2024/03/10 08:33:44;;;;;;;0.75;0.52;;;11.60;99.90;;;;;;4966775;28;20051;-74
2024/03/10 08:36:10;;;;;;;2.38;0.63;;;11.80;99.90;;;;;;4959512;28;20472;-74
2024/03/10 08:38:37;;;;;;;1.10;0.70;;;11.90;99.90;;;;;;4957675;28;20030;-74
2024/03/10 08:41:04;;;;;;;1.40;1.30;;;11.60;99.90;;;;;;4959437;28;20064;-74
2024/03/10 08:43:32;;;;;;;0.50;0.50;;;11.30;99.90;;;;;;4968485;28;20055;-73
2024/03/10 08:46:00;;;;;;;1.05;0.55;;;11.20;99.90;;;;;;4967433;28;20054;-75
2024/03/10 08:48:26;;;;;;;0.63;0.63;;;11.20;99.90;;;;;;4968051;28;20030;-75
2024/03/10 08:50:52;;;;;;;0.50;0.50;;;11.10;99.90;;;;;;4944094;28;20051;-74
2024/03/10 08:53:18;;;;;;;1.95;1.77;;;11.40;99.90;;;;;;4960675;28;20035;-74
2024/03/10 08:55:47;;;;;;;0.68;0.68;;;11.60;99.90;;;;;;4957065;28;20027;-74
2024/03/10 08:58:16;;;;;;;0.70;0.70;;;11.70;99.90;;;;;;4963754;28;20053;-74
2024/03/10 09:00:43;;;;;;;0.43;0.43;;;11.70;99.90;;;;;;4947875;28;20039;-74
2024/03/10 09:03:10;;;;;;;1.73;0.98;;;11.70;99.90;;;;;;4961368;28;20046;-74
2024/03/10 09:05:36;;;;;;;0.57;0.47;;;11.50;99.90;;;;;;4969936;28;20034;-74
2024/03/10 09:08:03;;;;;;;0.95;0.70;;;11.40;99.90;;;;;;4964943;28;20038;-75
2024/03/10 09:10:29;;;;;;;1.35;1.00;;;11.40;99.90;;;;;;4950062;28;20057;-73
2024/03/10 09:12:56;;;;;;;0.73;0.73;;;11.30;99.90;;;;;;4969345;28;20042;-74
2024/03/10 09:15:22;;;;;;;1.20;0.90;;;11.10;99.90;;;;;;4970711;28;20027;-74
2024/03/10 09:17:48;;;;;;;0.85;0.85;;;11.20;99.90;;;;;;4969546;28;20059;-74
2024/03/10 09:20:14;;;;;;;0.52;0.52;;;11.20;99.90;;;;;;4949097;28;20047;-74
2024/03/10 09:22:41;;;;;;;0.68;0.68;;;11.40;99.90;;;;;;4959781;28;20678;-73
2024/03/10 09:25:12;;;;;;;0.70;0.70;;;11.40;99.90;;;;;;4963723;28;20050;-73
2024/03/10 09:27:40;;;;;;;0.43;0.43;;;11.30;99.90;;;;;;4966960;28;20027;-73
2024/03/10 09:30:08;;;;;;;0.93;0.90;;;11.30;99.90;;;;;;4964787;28;20062;-73
2024/03/10 09:32:35;;;;;;;0.95;0.75;;;11.30;99.90;;;;;;4963682;28;20043;-73
2024/03/10 09:35:01;;;;;;;3.60;1.67;;;11.20;99.90;;;;;;4964081;28;20050;-73
2024/03/10 09:37:30;;;;;;;13.00;1.58;;;11.20;99.90;;;;;;4942084;28;20032;-73
2024/03/10 09:39:56;;;;;;;0.65;0.60;;;11.30;99.90;;;;;;4958715;28;20050;-73
2024/03/10 09:42:22;;;;;;;1.38;1.02;;;11.40;99.90;;;;;;4963237;28;20388;-73
2024/03/10 09:44:50;;;;;;;1.08;0.98;;;12.20;99.90;;;;;;4963817;28;20051;-74
2024/03/10 09:47:19;;;;;;;1.05;0.98;;;12.20;99.90;;;;;;4956675;28;20046;-74
2024/03/10 09:49:47;;;;;;;2.88;1.65;;;12.30;99.90;;;;;;4956914;28;20027;-75
2024/03/10 09:52:13;;;;;;;1.77;1.67;;;12.30;99.90;;;;;;4968786;28;20058;-74
2024/03/10 09:54:39;;;;;;;1.55;1.45;;;12.40;99.90;;;;;;4957058;28;20370;-74
2024/03/10 09:57:06;;;;;;;1.33;0.75;;;12.20;99.90;;;;;;4966834;28;20042;-74
2024/03/10 09:59:44;;;;;;;1.70;1.23;;;12.20;99.90;;;;;;4967718;28;20034;-74
2024/03/10 10:02:20;;;;;;;1.95;1.75;;;12.30;99.90;;;;;;4968590;28;20066;-74
2024/03/10 10:04:56;;;;;;;1.10;0.80;;;12.20;99.90;;;;;;4967936;28;20049;-73
2024/03/10 10:07:26;;;;;;;0.20;0.20;;;12.20;99.90;;;;;;4964154;28;20042;-73
2024/03/10 10:09:56;;;;;;;0.80;0.53;;;12.10;99.90;;;;;;4959886;28;20031;-74
2024/03/10 10:12:22;;;;;;;3.00;0.95;;;12.10;99.90;;;;;;4967185;28;20051;-74
2024/03/10 10:14:50;;;;;;;0.50;0.30;;;12.20;99.90;;;;;;4966746;28;20050;-74
2024/03/10 10:17:17;;;;;;;4.45;1.27;;;12.00;99.90;;;;;;4970572;28;20484;-74
2024/03/10 10:19:43;;;;;;;0.60;0.60;;;12.00;99.90;;;;;;4965760;28;20042;-74
2024/03/10 10:22:11;;;;;;;3.33;1.75;;;12.20;99.90;;;;;;4965116;28;20380;-74
2024/03/10 10:24:38;;;;;;;2.45;1.85;;;12.20;99.90;;;;;;4964921;28;20027;-74
2024/03/10 10:27:04;;;;;;;0.85;0.75;;;12.50;99.90;;;;;;4965960;28;20035;-74
2024/03/10 10:29:50;;;;;;;1.92;0.50;;;12.60;99.90;;;;;;4967844;28;20050;-75
2024/03/10 10:32:20;;;;;;;0.63;0.63;;;12.50;99.90;;;;;;4967932;28;20035;-74
2024/03/10 10:34:46;;;;;;;0.95;0.63;;;12.80;99.90;;;;;;4966985;28;20461;-74
2024/03/10 10:37:13;;;;;;;4.28;2.53;;;12.80;99.90;;;;;;4955690;28;20044;-75
2024/03/10 10:39:39;;;;;;;0.95;0.95;;;13.00;99.90;;;;;;4944772;28;20038;-76
2024/03/10 10:42:07;;;;;;;2.45;1.42;;;12.90;99.90;;;;;;4960818;28;20037;-73
2024/03/10 10:44:40;;;;;;;2.25;1.13;;;13.00;99.90;;;;;;4969208;28;20047;-73
2024/03/10 10:47:14;;;;;;;1.25;1.17;;;13.00;99.90;;;;;;4968577;28;20039;-74
2024/03/10 10:49:40;;;;;;;1.90;1.38;;;13.00;99.90;;;;;;4967775;28;20376;-74
2024/03/10 10:52:06;;;;;;;1.05;0.68;;;12.90;99.90;;;;;;4947675;28;20042;-75
2024/03/10 10:54:34;;;;;;;1.40;1.30;;;13.00;99.90;;;;;;4962042;28;20038;-74
2024/03/10 10:57:06;;;;;;;3.53;1.48;;;13.10;99.90;;;;;;4967047;28;20027;-75
2024/03/10 10:59:32;;;;;;;0.80;0.80;;;12.90;99.90;;;;;;4965264;28;20037;-74
2024/03/10 11:02:04;;;;;;;2.60;1.05;;;13.00;99.90;;;;;;4968148;28;20041;-75
2024/03/10 11:04:31;;;;;;;1.80;1.15;;;13.10;99.90;;;;;;4963387;28;20026;-74
2024/03/10 11:07:02;;;;;;;0.68;0.65;;;13.30;99.90;;;;;;4962605;28;20034;-74
2024/03/10 11:09:30;;;;;;;0.88;0.88;;;13.30;99.90;;;;;;4962109;28;20038;-74
2024/03/10 11:11:58;;;;;;;1.65;1.52;;;13.10;99.90;;;;;;4965597;28;20062;-74
2024/03/10 11:14:26;;;;;;;1.10;0.90;;;13.00;99.90;;;;;;4968543;28;20472;-75
2024/03/10 11:17:18;;;;;;;2.28;1.50;;;13.10;99.90;;;;;;4967507;28;20042;-74
2024/03/10 11:19:49;;;;;;;3.63;1.67;;;13.10;99.90;;;;;;4964052;28;20038;-74
2024/03/10 11:22:35;;;;;;;1.52;0.88;;;13.10;99.90;;;;;;4962742;28;20035;-74
2024/03/10 11:25:16;;;;;;;0.63;0.63;;;13.30;99.90;;;;;;4966073;28;20099;-75
2024/03/10 11:27:42;;;;;;;;;;;13.20;99.90;;;;;;4966872;28;20268;-73
2024/03/10 11:30:45;;;;;;;0.45;0.45;;;13.20;99.90;;;;;;4967460;28;19910;-75
2024/03/10 11:33:13;;;;;;;1.23;1.13;;;13.40;99.90;;;;;;4966415;28;20489;-73
2024/03/10 11:35:40;;;;;;;5.78;1.42;;;13.60;99.90;;;;;;4963930;28;20023;-74
2024/03/10 11:38:09;;;;;;;1.13;1.08;;;13.50;99.90;;;;;;4961272;28;20031;-74
2024/03/10 11:40:35;;;;;;;2.63;1.92;;;13.40;99.90;;;;;;4960206;28;20365;-74
2024/03/10 11:43:03;;;;;;;3.10;1.58;;;13.30;99.90;;;;;;4964727;28;20058;-73
2024/03/10 11:45:29;;;;;;;1.08;1.02;;;13.40;99.90;;;;;;4964587;28;20393;-75
2024/03/10 11:47:56;;;;;;;2.38;1.00;;;13.30;99.90;;;;;;4968734;28;20041;-74
2024/03/10 11:50:22;;;;;;;0.75;0.73;;;13.30;99.90;;;;;;4961657;28;20042;-74
2024/03/10 11:52:48;;;;;;;4.57;1.58;;;13.40;99.90;;;;;;4963345;28;20043;-74
2024/03/10 11:55:18;;;;;;;3.20;0.93;;;13.40;99.90;;;;;;4961078;28;20035;-75
2024/03/10 11:57:44;;;;;;;1.25;0.88;;;13.30;99.90;;;;;;4967059;28;20032;-73
2024/03/10 12:00:16;;;;;;;1.15;0.70;;;13.60;99.90;;;;;;4945644;28;20039;-73
2024/03/10 12:02:43;;;;;;;1.35;1.25;;;13.60;99.90;;;;;;4967135;28;20039;-75
2024/03/10 12:05:11;;;;;;;2.17;1.25;;;13.70;99.90;;;;;;4967667;28;20035;-74
2024/03/10 12:07:37;;;;;;;0.77;0.70;;;13.70;99.90;;;;;;4953450;28;20031;-74
2024/03/10 12:10:08;;;;;;;0.70;0.70;;;13.90;99.90;;;;;;4959436;28;20461;-74
2024/03/10 12:12:35;;;;;;;;;;;13.90;99.90;;;;;;4951222;28;20058;-74
2024/03/10 12:15:01;;;;;;;0.45;0.45;;;14.20;99.90;;;;;;4967398;28;20295;-73
2024/03/10 12:17:28;;;;;;;1.98;1.27;;;14.20;99.90;;;;;;4966025;28;20037;-73
2024/03/10 12:19:54;;;;;;;2.15;1.30;;;14.30;99.90;;;;;;4964595;28;20054;-72
2024/03/10 12:22:21;;;;;;;1.65;1.08;;;14.40;99.90;;;;;;4960020;28;20484;-75
2024/03/10 12:24:47;;;;;;;0.75;0.65;;;14.10;99.90;;;;;;4960163;28;20027;-74
2024/03/10 12:27:13;;;;;;;0.30;0.30;;;14.10;99.90;;;;;;4966726;28;20034;-74
2024/03/10 12:29:48;;;;;;;0.52;0.52;;;14.10;99.90;;;;;;4964317;28;20038;-74
2024/03/10 12:32:15;;;;;;;0.95;0.82;;;14.40;99.90;;;;;;4966508;28;20050;-74
2024/03/10 12:34:50;;;;;;;0.63;0.63;;;14.60;99.90;;;;;;4965236;28;20613;-75
2024/03/10 12:37:17;;;;;;;1.40;1.13;;;14.80;99.90;;;;;;4967687;28;20031;-74
2024/03/10 12:39:45;;;;;;;0.65;0.45;;;14.90;99.90;;;;;;4961639;28;20045;-73
2024/03/10 12:42:13;;;;;;;3.20;2.38;;;15.00;99.90;;;;;;4961133;28;20031;-73
2024/03/10 12:44:40;;;;;;;0.55;0.45;;;14.80;99.90;;;;;;4943401;28;20256;-73
2024/03/10 12:47:07;;;;;;;1.63;0.85;;;14.70;99.90;;;;;;4965279;28;20042;-73
2024/03/10 12:49:33;;;;;;;0.82;0.63;;;14.50;99.90;;;;;;4964077;28;20031;-73
2024/03/10 12:52:00;;;;;;;1.65;1.55;;;14.50;99.90;;;;;;4945235;28;20058;-73
2024/03/10 12:54:26;;;;;;;2.63;1.27;;;14.60;99.90;;;;;;4963410;28;20034;-73
2024/03/10 12:56:52;;;;;;;2.15;1.23;;;14.60;99.90;;;;;;4965294;28;20034;-73
2024/03/10 12:59:20;;;;;;;0.65;0.65;;;14.70;99.90;;;;;;4963420;28;20030;-73
2024/03/10 13:01:47;;;;;;;0.85;0.85;;;14.40;99.90;;;;;;4972232;28;20469;-74
2024/03/10 13:04:13;;;;;;;0.73;0.73;;;14.10;99.90;;;;;;4966838;28;20042;-73
2024/03/10 13:06:40;;;;;;;0.75;0.75;;;14.10;99.90;;;;;;4962707;28;20460;-74
2024/03/10 13:09:09;;;;;;;0.75;0.75;;;14.10;99.90;;;;;;4961968;28;20456;-74
2024/03/10 13:11:35;;;;;;;0.85;0.85;;;14.10;99.90;;;;;;4968028;28;20030;-75
2024/03/10 13:14:03;;;;;;;2.92;0.77;;;14.30;99.90;;;;;;4969213;28;20606;-75
2024/03/10 13:16:29;;;;;;;4.22;1.30;;;14.20;99.90;;;;;;4964753;28;20031;-74